PROFILE

 METAR AND TAF INFORMATION
ADDS - METARS form results

(2247 UTC 10 December 2018)
http://aviationweather.gov/metar/data/
 
TIST 102153Z 11007KT 10SM FEW085 27/22 A3007 RMK AO2 SLP182 T02720217
TIST 101720Z 1018/1118 12015G22KT P6SM FEW030 FM102030 08010KT P6SM FEW030 FM111300 13012KT P6SM FEW025 

 AIRPORT MAP

 RUNWAY INFORMATION
Runway 10 Runway length 7000 ft Runway width 150 ft
Runway elevation 23 ft Runway displaced threshold 0 ft Runway heading 88
Runway 28 Runway length 7000 ft Runway width 150 ft
Runway elevation 11 ft Runway displaced threshold 2300 ft Runway heading 268

 AIRPORT FREQUENCIES
Type A/D Name SAN JUAN C Frequency 128.65 MHZ
Type APP Name ST THOMAS Frequency 118.8 MHZ
Type ATIS Name ATIS Frequency 124 MHZ
Type CTAF Name CTAF Frequency 118.8 MHZ
Type DEP Name ST THOMAS Frequency 118.8 MHZ
Type GND Name GND Frequency 121.9 MHZ
Type RDO Name SAN JUAN R Frequency 108.6 MHZ
Type TWR Name ST THOMAS Frequency 118.1 MHZ
Type UNIC Name UNICOM Frequency 122.95 MHZ

 AIRPORT NEAR NAVIGATION AIDS
Type VOR-DME Name St Thomas Frequency 108600 KHZ